Time;durP1;ratioP1;P1;durP2;ratioP2;P2;SDS_P1;SDS_P2;PMS_P1;PMS_P2;Temp;Humidity;BMP_temperature;BMP_pressure;BME280_temperature;BME280_humidity;BME280_pressure;Samples;Min_cycle;Max_cycle;Signal;HPM_P1;HPM_P2
2022/08/11 00:00:44;;;;;;;11.38;2.10;;;42.90;41.60;;;;;;5026284;28;20505;-63
2022/08/11 00:03:16;;;;;;;12.38;2.28;;;42.70;50.30;;;;;;5024825;28;20488;-63
2022/08/11 00:05:50;;;;;;;13.45;2.63;;;42.50;41.60;;;;;;5003853;28;20632;-64
2022/08/11 00:08:26;;;;;;;11.73;2.30;;;42.60;41.80;;;;;;5006118;28;20064;-63
2022/08/11 00:11:03;;;;;;;11.63;2.53;;;42.70;52.20;;;;;;5027177;28;20034;-64
2022/08/11 00:13:44;;;;;;;11.32;2.70;;;43.20;53.20;;;;;;5008839;28;20416;-65
2022/08/11 00:16:22;;;;;;;8.75;2.33;;;42.40;53.80;;;;;;5049070;28;20021;-64
2022/08/11 00:18:53;;;;;;;12.93;2.47;;;42.70;58.30;;;;;;5027423;28;20024;-66
2022/08/11 00:21:25;;;;;;;19.35;2.50;;;43.00;56.40;;;;;;5030636;28;20084;-64
2022/08/11 00:24:00;;;;;;;10.68;2.70;;;42.60;56.00;;;;;;5028899;28;20049;-62
2022/08/11 00:26:27;;;;;;;9.32;2.67;;;42.70;41.20;;;;;;5035163;28;20071;-63
2022/08/11 00:28:55;;;;;;;13.07;2.80;;;42.50;41.00;;;;;;5035131;28;20029;-67
2022/08/11 00:31:24;;;;;;;13.70;2.88;;;42.40;51.20;;;;;;5032428;28;20063;-62
2022/08/11 00:33:53;;;;;;;14.38;2.30;;;42.20;40.80;;;;;;5033483;28;20156;-64
2022/08/11 00:36:26;;;;;;;12.82;2.47;;;42.20;41.80;;;;;;5030191;28;20458;-63
2022/08/11 00:38:54;;;;;;;16.08;2.60;;;42.10;53.10;;;;;;5028865;28;20691;-64
2022/08/11 00:41:58;;;;;;;16.50;2.60;;;42.80;52.90;;;;;;5039994;28;20036;-64
2022/08/11 00:44:51;;;;;;;7.40;2.28;;;42.40;41.40;;;;;;5034693;28;20021;-63
2022/08/11 00:47:35;;;;;;;15.88;2.55;;;42.30;41.60;;;;;;5020249;28;20025;-65
2022/08/11 00:50:21;;;;;;;11.02;2.40;;;41.50;51.80;;;;;;5033450;28;20055;-63
2022/08/11 00:52:54;;;;;;;13.25;2.78;;;41.50;51.50;;;;;;5010833;28;21061;-65
2022/08/11 00:55:54;;;;;;;9.70;2.42;;;42.10;55.80;;;;;;5029898;28;20435;-65
2022/08/11 00:58:39;;;;;;;12.27;2.75;;;41.40;41.20;;;;;;5029343;28;20432;-63
2022/08/11 01:01:19;;;;;;;10.15;2.25;;;40.90;45.80;;;;;;5031218;28;20029;-64
2022/08/11 01:04:01;;;;;;;17.60;3.05;;;40.70;64.50;;;;;;5028641;28;20021;-61
2022/08/11 01:06:48;;;;;;;18.17;2.83;;;41.30;54.70;;;;;;5035802;28;20033;-64
2022/08/11 01:09:40;;;;;;;14.45;3.28;;;41.20;56.60;;;;;;5029037;28;20033;-64
2022/08/11 01:12:27;;;;;;;21.25;4.15;;;40.90;47.20;;;;;;5034423;28;20030;-63
2022/08/11 01:15:25;;;;;;;45.70;4.13;;;40.20;53.60;;;;;;5031155;28;20022;-61
2022/08/11 01:18:28;;;;;;;20.70;3.08;;;40.10;80.00;;;;;;5033209;28;20127;-64
2022/08/11 01:21:13;;;;;;;16.65;3.05;;;39.90;48.30;;;;;;5031154;28;20056;-64
2022/08/11 01:24:01;;;;;;;13.05;2.55;;;38.80;49.90;;;;;;5033982;28;20034;-66
2022/08/11 01:26:43;;;;;;;25.75;3.20;;;38.70;54.30;;;;;;5035700;28;20022;-63
2022/08/11 01:29:57;;;;;;;20.92;3.40;;;38.00;56.00;;;;;;5038619;28;20067;-68
2022/08/11 01:32:55;;;;;;;29.25;3.53;;;37.30;72.20;;;;;;5032605;28;20073;-63
2022/08/11 01:35:37;;;;;;;19.38;2.75;;;36.70;90.30;;;;;;5034502;28;20074;-62
2022/08/11 01:38:28;;;;;;;8.57;2.80;;;36.90;65.00;;;;;;5036089;28;20028;-64
2022/08/11 01:41:01;;;;;;;15.05;2.65;;;36.90;60.00;;;;;;5033619;28;20042;-64
2022/08/11 01:46:55;;;;;;;12.55;2.65;;;36.50;58.20;;;;;;5001600;28;20071;-65
2022/08/11 01:49:45;;;;;;;9.80;2.15;;;36.40;54.80;;;;;;5012694;28;20550;-64
2022/08/11 01:53:01;;;;;;;8.30;2.22;;;36.40;54.60;;;;;;5031646;28;20169;-67
2022/08/11 01:55:56;;;;;;;11.25;2.72;;;36.60;53.60;;;;;;5028733;28;20065;-63
2022/08/11 01:58:57;;;;;;;33.92;3.15;;;36.60;54.00;;;;;;5034473;28;20064;-65
2022/08/11 02:02:03;;;;;;;24.20;2.78;;;36.70;52.30;;;;;;5030116;28;20065;-62
2022/08/11 02:04:35;;;;;;;18.87;2.40;;;36.30;51.50;;;;;;5031150;28;20422;-63
2022/08/11 02:07:22;;;;;;;10.10;2.42;;;36.60;52.10;;;;;;5032086;28;20070;-63
2022/08/11 02:13:41;;;;;;;11.05;1.83;;;36.50;79.30;;;;;;5033945;28;19965;-64
2022/08/11 02:16:17;;;;;;;9.60;1.80;;;36.50;51.30;;;;;;5021038;28;20077;-62
2022/08/11 02:25:06;;;;;;;16.85;2.38;;;36.40;74.80;;;;;;5034145;28;20481;-65
2022/08/11 02:27:43;;;;;;;14.55;2.90;;;36.60;51.20;;;;;;5030343;28;20116;-66
2022/08/11 02:30:16;;;;;;;11.00;2.70;;;36.60;53.60;;;;;;5010818;28;20104;-63
2022/08/11 02:36:14;;;;;;;13.70;2.30;;;36.70;55.40;;;;;;4976490;28;20032;-63
2022/08/11 02:38:46;;;;;;;12.02;2.05;;;;;;;;;;4969649;28;20050;-64
2022/08/11 02:44:06;;;;;;;8.68;2.50;;;;;;;;;;4986173;28;20073;-63
2022/08/11 02:46:59;;;;;;;13.68;2.38;;;36.90;49.30;;;;;;4981724;28;20038;-62
2022/08/11 02:50:05;;;;;;;23.02;3.22;;;;;;;;;;4985239;28;20041;-63
2022/08/11 02:52:51;;;;;;;17.65;3.15;;;;;;;;;;4981935;28;20233;-62
2022/08/11 02:55:26;;;;;;;14.90;3.10;;;;;;;;;;4971919;28;20034;-64
2022/08/11 02:57:56;;;;;;;25.70;3.22;;;;;;;;;;4972291;28;20030;-63
2022/08/11 03:00:24;;;;;;;26.17;3.67;;;;;;;;;;4984943;28;20053;-62
2022/08/11 03:02:59;;;;;;;23.17;3.20;;;36.80;62.40;;;;;;4970568;28;20026;-63
2022/08/11 03:05:41;;;;;;;23.65;3.40;;;36.70;50.00;;;;;;4985525;28;20499;-65
2022/08/11 03:08:28;;;;;;;20.13;3.83;;;36.60;60.70;;;;;;5026429;28;20022;-64
2022/08/11 03:17:23;;;;;;;12.98;2.72;;;36.70;59.20;;;;;;5028543;28;20402;-63
2022/08/11 03:20:30;;;;;;;30.05;3.08;;;36.50;52.00;;;;;;5030756;28;20062;-65
2022/08/11 03:23:13;;;;;;;11.95;3.10;;;36.60;48.20;;;;;;5035978;28;20075;-63
2022/08/11 03:25:46;;;;;;;17.40;3.40;;;36.60;48.10;;;;;;5030908;28;20029;-64
2022/08/11 03:28:31;;;;;;;18.30;3.25;;;36.80;59.00;;;;;;5032612;28;20045;-65
2022/08/11 03:31:18;;;;;;;18.13;3.30;;;36.60;66.20;;;;;;5031089;28;20026;-63
2022/08/11 03:34:03;;;;;;;21.38;4.93;;;35.90;58.10;;;;;;5011134;28;20486;-64
2022/08/11 03:36:43;;;;;;;15.00;4.07;;;36.90;53.00;;;;;;5032354;28;20026;-64
2022/08/11 03:39:16;;;;;;;21.20;4.95;;;36.60;56.00;;;;;;5028867;28;20033;-62
2022/08/11 03:41:49;;;;;;;21.55;4.65;;;;;;;;;;5011469;28;20029;-65
2022/08/11 03:44:34;;;;;;;16.40;3.80;;;;;;;;;;5029744;28;20025;-62
2022/08/11 03:47:06;;;;;;;15.85;4.03;;;36.50;67.60;;;;;;5026353;28;20722;-63
2022/08/11 03:49:57;;;;;;;21.63;5.40;;;36.50;57.70;;;;;;5024463;28;20378;-62
2022/08/11 03:52:27;;;;;;;28.10;4.60;;;;;;;;;;5028857;28;20091;-66
2022/08/11 03:55:09;;;;;;;23.42;4.60;;;36.30;91.60;;;;;;5035609;28;20037;-65
2022/08/11 03:57:48;;;;;;;31.52;5.78;;;36.60;50.90;;;;;;5031653;28;20070;-62
2022/08/11 04:00:37;;;;;;;30.42;4.90;;;;;;;;;;5029989;28;20120;-64
2022/08/11 04:03:16;;;;;;;29.25;5.28;;;;;;;;;;5030078;28;20032;-63
2022/08/11 04:06:19;;;;;;;29.83;5.70;;;36.60;52.20;;;;;;5040447;28;20043;-65
2022/08/11 04:09:02;;;;;;;44.42;5.72;;;36.60;56.30;;;;;;5034393;28;20033;-63
2022/08/11 04:11:37;;;;;;;62.00;7.80;;;;;;;;;;5034848;28;20094;-65
2022/08/11 04:17:47;;;;;;;88.15;9.23;;;36.50;50.30;;;;;;5040875;28;20112;-61
2022/08/11 04:20:17;;;;;;;133.68;12.82;;;36.40;50.90;;;;;;5029296;28;20025;-64
2022/08/11 04:23:20;;;;;;;226.25;20.50;;;35.90;93.50;;;;;;5036527;28;20029;-61
2022/08/11 04:26:25;;;;;;;236.40;23.13;;;36.20;57.40;;;;;;5037312;28;20033;-62
2022/08/11 04:29:28;;;;;;;253.63;26.23;;;35.30;90.20;;;;;;5034341;28;20026;-67
2022/08/11 04:32:31;;;;;;;282.58;30.13;;;36.20;83.20;;;;;;5035362;28;20139;-63
2022/08/11 04:35:19;;;;;;;280.77;29.08;;;35.80;50.50;;;;;;5037399;28;20075;-62
2022/08/11 04:37:46;;;;;;;269.75;26.10;;;;;;;;;;5032709;28;20022;-63
2022/08/11 04:41:13;;;;;;;266.40;25.38;;;36.00;87.60;;;;;;5031658;28;20033;-62
2022/08/11 04:44:16;;;;;;;259.25;26.20;;;35.60;60.50;;;;;;4966532;28;20034;-62
2022/08/11 04:46:58;;;;;;;258.20;25.83;;;36.20;84.60;;;;;;4949959;28;20471;-62
2022/08/11 05:02:35;;;;;;;205.55;20.40;;;35.50;83.20;;;;;;4893734;29;20036;-62
